createdAt,value
2018-06-15T00:00:03.432Z,83.70
2018-06-15T00:02:33.060Z,84.50
2018-06-15T00:05:01.459Z,84.20
2018-06-15T00:07:29.880Z,84.20
2018-06-15T00:09:58.697Z,84.80
2018-06-15T00:12:27.040Z,83.80
2018-06-15T00:14:55.427Z,84.10
2018-06-15T00:17:23.739Z,85.00
2018-06-15T00:19:52.027Z,84.80
2018-06-15T00:22:20.367Z,83.80
2018-06-15T00:24:48.665Z,83.30
2018-06-15T00:27:16.983Z,83.70
2018-06-15T00:29:45.262Z,82.50
2018-06-15T00:32:13.560Z,83.30
2018-06-15T00:34:41.882Z,82.50
2018-06-15T00:37:10.163Z,83.10
2018-06-15T00:39:38.519Z,83.60
2018-06-15T00:42:06.819Z,85.60
2018-06-15T00:44:35.101Z,83.80
2018-06-15T00:47:03.390Z,83.60
2018-06-15T00:49:31.688Z,84.00
2018-06-15T00:51:59.969Z,83.60
2018-06-15T00:54:28.299Z,83.80
2018-06-15T00:57:08.067Z,84.30
2018-06-15T00:59:36.359Z,84.60
2018-06-15T01:02:04.714Z,85.40
2018-06-15T01:04:33.020Z,85.10
2018-06-15T01:07:01.307Z,84.20
2018-06-15T01:09:29.575Z,86.20
2018-06-15T01:11:57.851Z,85.60
2018-06-15T01:14:26.158Z,85.10
2018-06-15T01:16:54.448Z,84.90
2018-06-15T01:19:22.859Z,84.30
2018-06-15T01:21:51.141Z,85.40
2018-06-15T01:24:19.506Z,85.80
2018-06-15T01:26:47.804Z,85.90
2018-06-15T01:29:16.121Z,86.40
2018-06-15T01:31:44.445Z,86.60
2018-06-15T01:34:12.771Z,87.40
2018-06-15T01:36:41.131Z,88.80
2018-06-15T01:39:10.655Z,88.90
2018-06-15T01:41:39.011Z,88.60
2018-06-15T01:44:07.276Z,89.10
2018-06-15T01:46:35.792Z,90.70
2018-06-15T01:49:04.068Z,90.10
2018-06-15T01:51:32.334Z,90.70
2018-06-15T01:54:00.617Z,90.20
2018-06-15T01:56:28.882Z,90.50
2018-06-15T01:58:57.125Z,91.10
2018-06-15T02:01:25.496Z,91.10
2018-06-15T02:03:53.712Z,91.50
2018-06-15T02:06:22.019Z,91.40
2018-06-15T02:08:50.343Z,91.30
2018-06-15T02:11:18.673Z,91.60
2018-06-15T02:13:47.000Z,91.70
2018-06-15T02:16:15.331Z,91.40
2018-06-15T02:18:43.667Z,91.40
2018-06-15T02:21:12.045Z,91.30
2018-06-15T02:23:40.339Z,91.40
2018-06-15T02:26:08.643Z,91.80
2018-06-15T02:28:36.939Z,92.30
2018-06-15T02:31:05.267Z,92.00
2018-06-15T02:33:33.612Z,91.80
2018-06-15T02:36:01.966Z,91.80
2018-06-15T02:38:30.281Z,91.10
2018-06-15T02:40:58.592Z,91.20
2018-06-15T02:43:26.912Z,92.20
2018-06-15T02:45:55.225Z,92.30
2018-06-15T02:48:23.529Z,92.10
2018-06-15T02:50:51.934Z,92.20
2018-06-15T02:53:20.266Z,92.80
2018-06-15T02:55:48.609Z,92.60
2018-06-15T02:58:16.934Z,92.90
2018-06-15T03:00:45.308Z,92.80
2018-06-15T03:03:13.743Z,92.40
2018-06-15T03:05:42.094Z,92.70
2018-06-15T03:08:10.453Z,93.30
2018-06-15T03:10:38.787Z,93.60
2018-06-15T03:13:07.114Z,93.40
2018-06-15T03:15:35.477Z,93.40
2018-06-15T03:18:03.748Z,92.90
2018-06-15T03:20:32.020Z,92.30
2018-06-15T03:23:00.385Z,92.00
2018-06-15T03:25:28.701Z,92.30
2018-06-15T03:27:57.014Z,93.20
2018-06-15T03:30:25.307Z,93.20
2018-06-15T03:32:53.619Z,93.00
2018-06-15T03:35:21.944Z,93.40
2018-06-15T03:37:50.260Z,93.10
2018-06-15T03:40:18.579Z,93.40
2018-06-15T03:42:46.993Z,93.70
2018-06-15T03:45:15.342Z,94.10
2018-06-15T03:47:43.714Z,93.80
2018-06-15T03:50:11.997Z,94.20
2018-06-15T03:52:40.339Z,93.70
2018-06-15T03:55:08.640Z,93.70
2018-06-15T03:57:36.946Z,93.70
2018-06-15T04:00:05.294Z,93.10
2018-06-15T04:02:34.335Z,92.40
2018-06-15T04:05:02.643Z,91.30
2018-06-15T04:07:31.313Z,90.90
2018-06-15T04:09:59.588Z,90.00
2018-06-15T04:12:27.919Z,88.60
2018-06-15T04:14:56.311Z,88.40
2018-06-15T04:17:24.703Z,89.10
2018-06-15T04:19:52.985Z,89.80
2018-06-15T04:22:21.279Z,88.40
2018-06-15T04:27:17.667Z,89.50
2018-06-15T04:29:45.949Z,88.00
2018-06-15T04:32:14.277Z,89.10
2018-06-15T04:34:42.580Z,90.10
2018-06-15T04:37:10.841Z,90.70
2018-06-15T04:39:39.305Z,90.60
2018-06-15T04:42:07.753Z,90.90
2018-06-15T04:44:36.080Z,91.00
2018-06-15T04:47:04.581Z,91.00
2018-06-15T04:49:33.072Z,91.20
2018-06-15T04:52:01.504Z,91.10
2018-06-15T04:54:30.069Z,91.40
2018-06-15T04:56:58.381Z,90.80
2018-06-15T04:59:26.712Z,90.60
2018-06-15T05:01:55.077Z,90.40
2018-06-15T05:04:23.512Z,90.30
2018-06-15T05:06:51.808Z,91.00
2018-06-15T05:09:20.224Z,91.10
2018-06-15T05:11:48.515Z,91.00
2018-06-15T05:14:16.828Z,91.80
2018-06-15T05:16:45.246Z,91.30
2018-06-15T05:19:14.564Z,91.30
2018-06-15T05:21:42.965Z,91.90
2018-06-15T05:24:11.435Z,92.20
2018-06-15T05:26:39.788Z,91.10
2018-06-15T05:29:08.136Z,89.80
2018-06-15T05:31:36.587Z,90.80
2018-06-15T05:34:05.649Z,90.00
2018-06-15T05:36:34.003Z,90.40
2018-06-15T05:39:02.401Z,90.10
2018-06-15T05:41:30.720Z,89.70
2018-06-15T05:43:59.124Z,90.20
2018-06-15T05:46:27.656Z,90.70
2018-06-15T05:48:56.112Z,91.20
2018-06-15T05:51:24.569Z,91.30
2018-06-15T05:53:52.977Z,91.40
2018-06-15T05:56:21.324Z,91.20
2018-06-15T05:58:49.764Z,90.40
2018-06-15T06:01:18.136Z,88.50
2018-06-15T06:03:46.514Z,86.20
2018-06-15T06:06:14.915Z,86.50
2018-06-15T06:08:43.295Z,88.10
2018-06-15T06:13:39.809Z,85.20
2018-06-15T06:16:08.254Z,84.20
2018-06-15T06:18:36.619Z,84.50
2018-06-15T06:21:05.037Z,83.40
2018-06-15T06:23:33.396Z,83.00
2018-06-15T06:26:01.759Z,82.70
2018-06-15T06:28:30.080Z,83.80
2018-06-15T06:30:58.644Z,82.00
2018-06-15T06:33:27.093Z,83.50
2018-06-15T06:35:55.565Z,86.80
2018-06-15T06:38:25.911Z,85.70
2018-06-15T06:40:54.354Z,85.60
2018-06-15T06:43:22.761Z,83.50
2018-06-15T06:48:19.305Z,78.40
2018-06-15T06:50:47.845Z,80.00
2018-06-15T06:53:16.253Z,79.90
2018-06-15T06:55:44.709Z,77.90
2018-06-15T06:58:13.132Z,75.60
2018-06-15T07:00:41.612Z,74.20
2018-06-15T07:05:38.157Z,71.90
2018-06-15T07:08:06.630Z,71.40
2018-06-15T07:10:35.037Z,71.50
2018-06-15T07:13:03.445Z,72.60
2018-06-15T07:15:31.893Z,69.20
2018-06-15T07:18:00.287Z,69.80
2018-06-15T07:20:28.771Z,70.30
2018-06-15T07:22:57.188Z,70.30
2018-06-15T07:25:25.637Z,67.60
2018-06-15T07:27:54.173Z,66.20
2018-06-15T07:30:22.611Z,66.30
2018-06-15T07:32:51.044Z,65.80
2018-06-15T07:35:19.528Z,66.60
2018-06-15T07:37:47.943Z,66.40
2018-06-15T07:40:16.415Z,65.50
2018-06-15T07:42:44.877Z,66.20
2018-06-15T07:45:13.316Z,64.50
2018-06-15T07:47:41.856Z,67.30
2018-06-15T07:50:10.288Z,64.20
2018-06-15T07:52:38.725Z,63.00
2018-06-15T07:55:07.104Z,62.40
2018-06-15T07:57:35.594Z,62.30
2018-06-15T08:00:04.026Z,61.40
2018-06-15T08:02:32.403Z,61.70
2018-06-15T08:05:00.853Z,62.30
2018-06-15T08:07:29.308Z,60.00
2018-06-15T08:09:57.703Z,58.30
2018-06-15T08:12:26.156Z,58.60
2018-06-15T08:14:54.532Z,57.20
2018-06-15T08:17:22.888Z,57.80
2018-06-15T08:19:51.271Z,56.50
2018-06-15T08:22:19.688Z,55.20
2018-06-15T08:24:48.062Z,56.10
2018-06-15T08:27:16.496Z,56.30
2018-06-15T08:29:44.772Z,58.20
2018-06-15T08:32:13.124Z,56.00
2018-06-15T08:34:41.568Z,57.40
2018-06-15T08:37:09.953Z,58.10
2018-06-15T08:39:38.345Z,55.70
2018-06-15T08:42:06.728Z,55.00
2018-06-15T08:44:35.172Z,54.40
2018-06-15T08:47:03.561Z,53.00
2018-06-15T08:49:31.963Z,54.80
2018-06-15T08:52:00.348Z,53.80
2018-06-15T08:54:28.724Z,56.30
2018-06-15T08:56:57.164Z,55.90
2018-06-15T08:59:25.504Z,55.10
2018-06-15T09:01:53.910Z,56.10
2018-06-15T09:04:22.278Z,56.40
2018-06-15T09:06:50.667Z,55.90
2018-06-15T09:09:19.035Z,56.80
2018-06-15T09:11:47.385Z,57.60
2018-06-15T09:14:15.838Z,58.30
2018-06-15T09:16:44.200Z,59.30
2018-06-15T09:19:12.787Z,57.60
2018-06-15T09:21:41.209Z,58.00
2018-06-15T09:24:09.628Z,57.50
2018-06-15T09:26:38.112Z,58.40
2018-06-15T09:29:06.511Z,60.60
2018-06-15T09:34:02.996Z,57.80
2018-06-15T09:36:31.380Z,57.00
2018-06-15T09:38:59.775Z,57.40
2018-06-15T09:41:28.147Z,55.50
2018-06-15T09:43:56.880Z,54.70
2018-06-15T09:46:26.167Z,54.40
2018-06-15T09:48:54.540Z,51.90
2018-06-15T09:51:22.969Z,54.00
2018-06-15T09:53:51.328Z,55.70
2018-06-15T09:56:19.680Z,53.50
2018-06-15T09:58:52.664Z,55.70
2018-06-15T10:01:21.279Z,56.00
2018-06-15T10:03:49.721Z,56.00
2018-06-15T10:06:18.305Z,57.90
2018-06-15T10:08:46.844Z,57.00
2018-06-15T10:11:15.437Z,57.30
2018-06-15T10:13:43.893Z,56.80
2018-06-15T10:18:40.376Z,56.70
2018-06-15T10:21:09.028Z,56.30
2018-06-15T10:23:37.360Z,57.30
2018-06-15T10:26:06.905Z,56.00
2018-06-15T10:28:35.241Z,58.30
2018-06-15T10:31:03.761Z,57.20
2018-06-15T10:33:32.077Z,59.20
2018-06-15T10:36:00.556Z,59.00
2018-06-15T10:38:28.917Z,57.00
2018-06-15T10:40:57.229Z,58.20
2018-06-15T10:43:25.608Z,57.70
2018-06-15T10:45:53.970Z,56.40
2018-06-15T10:48:22.212Z,56.20
2018-06-15T10:50:50.451Z,56.20
2018-06-15T10:53:19.333Z,55.20
2018-06-15T10:55:47.921Z,56.90
2018-06-15T10:58:18.624Z,54.00
2018-06-15T11:00:47.362Z,54.70
2018-06-15T11:03:15.929Z,53.10
2018-06-15T11:05:44.381Z,53.70
2018-06-15T11:08:12.901Z,51.80
2018-06-15T11:10:41.329Z,53.00
2018-06-15T11:13:09.720Z,49.90
2018-06-15T11:15:38.188Z,49.70
2018-06-15T11:18:06.786Z,50.30
2018-06-15T11:20:35.361Z,51.40
2018-06-15T11:23:03.769Z,51.90
2018-06-15T11:25:35.146Z,49.70
2018-06-15T11:28:03.570Z,50.00
2018-06-15T11:30:36.387Z,51.40
2018-06-15T11:33:07.919Z,49.90
2018-06-15T11:35:36.289Z,50.70
2018-06-15T11:38:04.759Z,50.40
2018-06-15T11:40:33.129Z,50.20
2018-06-15T11:45:29.719Z,51.40
2018-06-15T11:47:58.625Z,49.40
2018-06-15T11:50:27.108Z,50.90
2018-06-15T11:52:55.677Z,50.60
2018-06-15T11:55:24.202Z,50.70
2018-06-15T11:58:13.700Z,49.00
2018-06-15T12:00:53.674Z,50.50
2018-06-15T12:03:22.927Z,51.50
2018-06-15T12:05:51.393Z,49.50
2018-06-15T12:08:19.929Z,50.80
2018-06-15T12:10:49.000Z,50.60
2018-06-15T12:13:17.448Z,50.60
2018-06-15T12:15:45.967Z,53.00
2018-06-15T12:18:14.402Z,50.20
2018-06-15T12:20:42.869Z,50.70
2018-06-15T12:23:11.516Z,51.00
2018-06-15T12:25:39.996Z,51.80
2018-06-15T12:28:08.427Z,52.70
2018-06-15T12:30:37.057Z,50.90
2018-06-15T12:33:05.572Z,51.00
2018-06-15T12:35:34.100Z,51.70
2018-06-15T12:38:02.671Z,53.00
2018-06-15T12:40:31.168Z,52.80
2018-06-15T12:42:59.724Z,52.40
2018-06-15T12:45:28.195Z,52.10
2018-06-15T12:47:56.704Z,53.20
2018-06-15T12:50:25.245Z,51.70
2018-06-15T12:52:53.720Z,51.60
2018-06-15T12:55:22.202Z,50.40
2018-06-15T12:57:50.857Z,51.60
2018-06-15T13:00:19.303Z,51.50
2018-06-15T13:02:47.787Z,52.50
2018-06-15T13:05:16.279Z,52.60
2018-06-15T13:07:44.729Z,50.70
2018-06-15T13:10:13.311Z,51.90
2018-06-15T13:12:41.784Z,52.00
2018-06-15T13:15:10.220Z,51.00
2018-06-15T13:17:45.700Z,52.00
2018-06-15T13:20:14.161Z,52.60
2018-06-15T13:22:42.593Z,51.80
2018-06-15T13:25:10.942Z,53.00
2018-06-15T13:27:39.344Z,52.10
2018-06-15T13:30:07.753Z,52.40
2018-06-15T13:32:36.125Z,53.20
2018-06-15T13:35:04.716Z,52.70
2018-06-15T13:37:33.199Z,53.20
2018-06-15T13:40:01.705Z,53.30
2018-06-15T13:42:30.192Z,53.90
2018-06-15T13:44:58.596Z,54.80
2018-06-15T13:47:27.668Z,51.80
2018-06-15T13:49:56.068Z,52.40
2018-06-15T13:52:24.433Z,52.70
2018-06-15T13:54:53.168Z,53.60
2018-06-15T13:57:21.557Z,53.80
2018-06-15T13:59:50.733Z,53.60
2018-06-15T14:02:19.128Z,53.80
2018-06-15T14:04:47.562Z,53.90
2018-06-15T14:07:15.989Z,52.90
2018-06-15T14:09:44.502Z,53.40
2018-06-15T14:12:13.691Z,54.00
2018-06-15T14:14:42.318Z,53.00
2018-06-15T14:17:10.620Z,54.20
2018-06-15T14:19:39.057Z,54.60
2018-06-15T14:22:07.605Z,53.50
2018-06-15T14:24:35.993Z,53.50
2018-06-15T14:27:16.074Z,54.00
2018-06-15T14:29:44.465Z,54.10
2018-06-15T14:32:12.872Z,56.00
2018-06-15T14:34:41.263Z,54.00
2018-06-15T14:37:09.723Z,53.40
2018-06-15T14:39:38.156Z,53.90
2018-06-15T14:42:06.557Z,54.30
2018-06-15T14:44:35.009Z,53.60
2018-06-15T14:47:03.492Z,53.90
2018-06-15T14:49:31.974Z,54.90
2018-06-15T14:52:00.403Z,55.30
2018-06-15T14:54:28.795Z,55.60
2018-06-15T14:56:57.258Z,54.90
2018-06-15T14:59:25.694Z,54.90
2018-06-15T15:01:54.104Z,54.00
2018-06-15T15:04:22.513Z,54.00
2018-06-15T15:06:50.909Z,53.80
2018-06-15T15:09:19.324Z,54.70
2018-06-15T15:11:47.735Z,54.90
2018-06-15T15:14:16.158Z,55.00
2018-06-15T15:16:44.586Z,53.50
2018-06-15T15:19:13.052Z,54.50
2018-06-15T15:21:41.416Z,53.50
2018-06-15T15:26:38.085Z,53.90
2018-06-15T15:29:06.604Z,53.50
2018-06-15T15:31:35.056Z,54.00
2018-06-15T15:34:03.577Z,53.10
2018-06-15T15:36:32.096Z,54.00
2018-06-15T15:39:00.542Z,53.70
2018-06-15T15:41:28.996Z,52.70
2018-06-15T15:43:57.440Z,54.60
2018-06-15T15:46:25.873Z,55.10
2018-06-15T15:48:54.488Z,55.40
2018-06-15T15:51:22.934Z,54.90
2018-06-15T15:53:51.393Z,55.40
2018-06-15T15:56:19.826Z,56.10
2018-06-15T15:58:48.339Z,56.10
2018-06-15T16:01:16.802Z,55.60
2018-06-15T16:03:45.158Z,55.50
2018-06-15T16:06:13.658Z,55.20
2018-06-15T16:08:42.248Z,55.50
2018-06-15T16:11:10.519Z,55.70
2018-06-15T16:13:38.776Z,54.40
2018-06-15T16:16:07.703Z,54.80
2018-06-15T16:18:35.973Z,54.80
2018-06-15T16:21:06.481Z,54.60
2018-06-15T16:23:34.918Z,54.80
2018-06-15T16:26:03.216Z,55.40
2018-06-15T16:28:31.472Z,55.20
2018-06-15T16:31:00.027Z,55.60
2018-06-15T16:33:28.396Z,56.10
2018-06-15T16:35:56.825Z,55.30
2018-06-15T16:38:25.347Z,55.00
2018-06-15T16:40:53.669Z,55.70
2018-06-15T16:43:22.407Z,55.70
2018-06-15T16:45:50.987Z,55.10
2018-06-15T16:50:47.504Z,55.50
2018-06-15T16:53:15.884Z,54.90
2018-06-15T16:55:44.288Z,54.80
2018-06-15T16:58:12.863Z,54.90
2018-06-15T17:00:41.129Z,55.20
2018-06-15T17:03:09.845Z,56.00
2018-06-15T17:05:38.241Z,56.80
2018-06-15T17:08:06.627Z,56.00
2018-06-15T17:10:35.096Z,55.60
2018-06-15T17:13:03.498Z,56.00
2018-06-15T17:18:00.064Z,55.20
2018-06-15T17:20:28.597Z,54.80
2018-06-15T17:22:57.015Z,54.80
2018-06-15T17:25:25.415Z,54.80
2018-06-15T17:27:53.871Z,55.30
2018-06-15T17:32:50.559Z,56.00
2018-06-15T17:35:19.071Z,55.50
2018-06-15T17:37:47.715Z,56.00
2018-06-15T17:40:16.292Z,56.60
2018-06-15T17:42:44.822Z,56.50
2018-06-15T17:45:13.393Z,56.60
2018-06-15T17:47:41.945Z,57.10
2018-06-15T17:50:10.541Z,56.40
2018-06-15T17:52:41.325Z,56.40
2018-06-15T17:55:09.978Z,57.50
2018-06-15T17:57:38.500Z,58.40
2018-06-15T18:00:07.226Z,57.50
2018-06-15T18:02:36.118Z,58.00
2018-06-15T18:05:04.738Z,57.80
2018-06-15T18:07:33.322Z,58.00
2018-06-15T18:10:01.957Z,58.60
2018-06-15T18:12:30.514Z,59.30
2018-06-15T18:14:59.136Z,58.30
2018-06-15T18:17:27.640Z,59.20
2018-06-15T18:19:56.058Z,59.20
2018-06-15T18:22:24.441Z,59.70
2018-06-15T18:24:53.174Z,59.20
2018-06-15T18:27:21.523Z,59.30
2018-06-15T18:29:50.229Z,59.60
2018-06-15T18:32:19.207Z,60.70
2018-06-15T18:34:47.697Z,60.60
2018-06-15T18:37:16.062Z,61.10
2018-06-15T18:39:44.367Z,60.20
2018-06-15T18:42:12.599Z,59.80
2018-06-15T18:44:40.864Z,61.20
2018-06-15T18:47:09.223Z,61.00
2018-06-15T18:49:37.484Z,61.60
2018-06-15T18:52:07.543Z,61.50
2018-06-15T18:54:35.963Z,61.30
2018-06-15T18:57:04.433Z,62.30
2018-06-15T18:59:33.989Z,61.60
2018-06-15T19:02:03.945Z,62.60
2018-06-15T19:04:33.647Z,63.20
2018-06-15T19:07:01.903Z,64.10
2018-06-15T19:09:30.517Z,63.10
2018-06-15T19:11:59.190Z,64.70
2018-06-15T19:14:27.644Z,64.80
2018-06-15T19:16:56.163Z,67.00
2018-06-15T19:19:24.678Z,66.00
2018-06-15T19:21:53.249Z,65.50
2018-06-15T19:24:21.771Z,68.50
2018-06-15T19:26:50.438Z,67.20
2018-06-15T19:29:19.876Z,67.90
2018-06-15T19:31:50.185Z,68.00
2018-06-15T19:34:22.246Z,71.70
2018-06-15T19:36:52.341Z,71.20
2018-06-15T19:39:20.827Z,72.10
2018-06-15T19:41:49.321Z,71.90
2018-06-15T19:44:17.757Z,70.60
2018-06-15T19:46:46.237Z,69.40
2018-06-15T19:49:14.627Z,70.10
2018-06-15T19:51:43.092Z,71.20
2018-06-15T19:54:11.768Z,73.60
2018-06-15T19:59:08.298Z,72.70
2018-06-15T20:01:36.700Z,72.60
2018-06-15T20:04:05.172Z,73.10
2018-06-15T20:06:33.574Z,73.20
2018-06-15T20:09:02.054Z,75.00
2018-06-15T20:11:30.708Z,75.10
2018-06-15T20:13:59.063Z,74.80
2018-06-15T20:16:27.437Z,74.90
2018-06-15T20:18:55.872Z,74.80
2018-06-15T20:21:24.244Z,75.00
2018-06-15T20:23:52.555Z,74.80
2018-06-15T20:26:20.917Z,75.30
2018-06-15T20:28:49.374Z,76.00
2018-06-15T20:31:17.735Z,75.80
2018-06-15T20:33:46.082Z,76.20
2018-06-15T20:36:14.647Z,76.40
2018-06-15T20:38:42.964Z,76.90
2018-06-15T20:41:11.347Z,76.90
2018-06-15T20:43:39.741Z,76.90
2018-06-15T20:46:08.012Z,77.30
2018-06-15T20:48:36.736Z,78.20
2018-06-15T20:51:05.248Z,77.90
2018-06-15T20:53:33.568Z,78.40
2018-06-15T20:56:01.939Z,78.50
2018-06-15T20:58:30.350Z,78.80
2018-06-15T21:00:58.874Z,79.60
2018-06-15T21:03:27.335Z,79.30
2018-06-15T21:05:55.854Z,79.30
2018-06-15T21:08:24.217Z,79.80
2018-06-15T21:10:52.593Z,79.80
2018-06-15T21:13:20.996Z,81.30
2018-06-15T21:15:49.415Z,82.10
2018-06-15T21:18:17.756Z,82.70
2018-06-15T21:20:46.162Z,81.90
2018-06-15T21:23:14.660Z,82.50
2018-06-15T21:25:42.947Z,82.10
2018-06-15T21:28:11.287Z,82.00
2018-06-15T21:30:39.635Z,82.20
2018-06-15T21:33:07.952Z,81.90
2018-06-15T21:35:36.268Z,81.50
2018-06-15T21:38:04.897Z,82.20
2018-06-15T21:40:33.196Z,83.90
2018-06-15T21:43:01.573Z,84.20
2018-06-15T21:45:29.917Z,84.60
2018-06-15T21:47:58.242Z,84.10
2018-06-15T21:50:26.590Z,83.70
2018-06-15T21:52:55.026Z,83.60
2018-06-15T21:55:23.332Z,84.80
2018-06-15T21:57:51.658Z,85.50
2018-06-15T22:02:48.033Z,87.50
2018-06-15T22:05:16.453Z,87.40
2018-06-15T22:07:44.752Z,86.90
2018-06-15T22:10:13.039Z,86.60
2018-06-15T22:12:41.360Z,88.90
2018-06-15T22:15:09.681Z,89.70
2018-06-15T22:17:38.054Z,90.00
2018-06-15T22:20:06.465Z,90.50
2018-06-15T22:22:34.744Z,90.80
2018-06-15T22:25:03.069Z,90.50
2018-06-15T22:27:31.380Z,90.90
2018-06-15T22:29:59.810Z,91.00
2018-06-15T22:32:28.093Z,91.00
2018-06-15T22:34:56.536Z,92.10
2018-06-15T22:37:24.960Z,92.00
2018-06-15T22:39:53.283Z,92.00
2018-06-15T22:42:21.627Z,92.10
2018-06-15T22:44:49.966Z,92.00
2018-06-15T22:47:18.267Z,91.90
2018-06-15T22:49:46.712Z,91.40
2018-06-15T22:52:15.036Z,91.30
2018-06-15T22:54:43.415Z,91.30
2018-06-15T22:57:11.699Z,90.10
2018-06-15T22:59:40.028Z,90.50
2018-06-15T23:02:08.358Z,90.00
2018-06-15T23:04:36.681Z,89.70
2018-06-15T23:07:05.089Z,89.50
2018-06-15T23:09:33.396Z,88.40
2018-06-15T23:12:01.725Z,89.10
2018-06-15T23:14:30.105Z,89.30
2018-06-15T23:16:59.004Z,90.10
2018-06-15T23:19:27.332Z,90.30
2018-06-15T23:21:55.758Z,90.00
2018-06-15T23:24:24.153Z,90.00
2018-06-15T23:26:52.736Z,90.60
2018-06-15T23:29:21.063Z,91.00
2018-06-15T23:31:49.428Z,91.30
2018-06-15T23:34:17.748Z,90.90
2018-06-15T23:36:46.037Z,91.20
2018-06-15T23:39:14.424Z,91.50
2018-06-15T23:41:42.728Z,92.60
2018-06-15T23:44:11.034Z,92.20
2018-06-15T23:46:39.311Z,91.70
2018-06-15T23:49:07.760Z,92.20
2018-06-15T23:51:36.079Z,92.20
2018-06-15T23:54:04.428Z,92.20
2018-06-15T23:56:32.744Z,92.10
2018-06-15T23:59:01.084Z,92.70
